Time;durP1;ratioP1;P1;durP2;ratioP2;P2;SDS_P1;SDS_P2;PMS_P1;PMS_P2;Temp;Humidity;BMP_temperature;BMP_pressure;BME280_temperature;BME280_humidity;BME280_pressure;Samples;Min_cycle;Max_cycle;Signal;HPM_P1;HPM_P2
2022/06/11 00:00:40;;;;;;;;;;;;;;;29.19;27.13;100700.66;4414327;32;20094;-69
2022/06/11 00:03:05;;;;;;;;;;;;;;;29.24;27.22;100706.31;4418317;32;20306;-70
2022/06/11 00:05:30;;;;;;;;;;;;;;;29.29;27.15;100716.22;4423622;32;20003;-70
2022/06/11 00:07:57;;;;;;;;;;;;;;;29.63;26.61;100708.88;4416396;32;20375;-70
2022/06/11 00:10:23;;;;;;;;;;;;;;;29.61;26.76;100713.69;4418202;32;20344;-70
2022/06/11 00:12:49;;;;;;;;;;;;;;;29.53;26.73;100707.84;4417958;32;20257;-70
2022/06/11 00:15:15;;;;;;;;;;;;;;;29.68;26.60;100718.75;4415614;32;20048;-70
2022/06/11 00:17:41;;;;;;;;;;;;;;;30.18;26.08;100727.50;4418694;32;19961;-70
2022/06/11 00:20:07;;;;;;;;;;;;;;;29.52;26.86;100714.19;4417886;32;20011;-70
2022/06/11 00:22:32;;;;;;;;;;;;;;;29.74;26.56;100708.56;4416826;32;20114;-70
2022/06/11 00:24:58;;;;;;;;;;;;;;;29.85;26.42;100711.09;4416503;32;19991;-69
2022/06/11 00:27:24;;;;;;;;;;;;;;;29.87;26.43;100707.63;4418932;32;19989;-69
2022/06/11 00:29:52;;;;;;;;;;;;;;;30.11;26.18;100710.03;4419383;32;19949;-69
2022/06/11 00:32:18;;;;;;;;;;;;;;;29.82;26.49;100715.16;4419177;32;19987;-69
2022/06/11 00:34:44;;;;;;;;;;;;;;;29.89;26.42;100713.62;4419841;32;19954;-69
2022/06/11 00:37:11;;;;;;;;;;;;;;;29.20;27.35;100710.94;4416920;32;20358;-69
2022/06/11 00:39:38;;;;;;;;;;;;;;;30.01;26.40;100715.63;4421678;32;19968;-69
2022/06/11 00:42:06;;;;;;;;;;;;;;;29.68;26.81;100710.84;4419670;32;20323;-69
2022/06/11 00:44:33;;;;;;;;;;;;;;;29.17;27.47;100712.81;4418652;32;19961;-70
2022/06/11 00:47:01;;;;;;;;;;;;;;;29.02;27.71;100715.56;4417931;32;20041;-70
2022/06/11 00:57:34;;;;;;;;;;;;;;;28.86;28.14;100699.44;3952405;32;15724617;-70
2022/06/11 01:00:08;;;;;;;;;;;;;;;28.79;28.18;100695.16;4431042;32;19975;-69
2022/06/11 01:02:33;;;;;;;;;;;;;;;28.22;29.19;100704.97;4430361;32;19989;-69
2022/06/11 01:05:01;;;;;;;;;;;;;;;28.71;28.36;100696.41;4430194;32;19953;-69
2022/06/11 01:13:06;;;;;;;;;;;;;;;29.48;27.81;100710.91;3956505;32;15721309;-69
2022/06/11 01:15:36;;;;;;;;;;;;;;;29.48;27.81;100710.91;4436624;32;20728;-69
2022/06/11 01:26:10;;;;;;;;;;;;;;;29.01;28.45;100728.53;3951274;32;15724234;-69
2022/06/11 01:31:28;;;;;;;;;;;;;;;29.11;28.37;100723.03;3953302;32;15722597;-69
2022/06/11 01:36:33;;;;;;;;;;;;;;;29.35;27.94;100722.59;3951308;32;15723236;-69
2022/06/11 01:39:12;;;;;;;;;;;;;;;29.35;27.94;100722.59;4430140;32;19988;-69
2022/06/11 01:41:42;;;;;;;;;;;;;;;29.09;28.30;100717.00;4429416;32;20574;-69
2022/06/11 01:44:10;;;;;;;;;;;;;;;28.77;28.50;100715.19;4426656;32;20677;-69
2022/06/11 01:46:38;;;;;;;;;;;;;;;28.82;28.43;100717.19;4431330;32;20400;-69
2022/06/11 01:49:07;;;;;;;;;;;;;;;29.14;27.98;100719.75;4429922;32;19994;-69
2022/06/11 01:54:25;;;;;;;;;;;;;;;28.73;28.68;100711.87;3951180;32;15727496;-69
2022/06/11 01:59:46;;;;;;;;;;;;;;;29.09;28.15;100723.59;3952805;32;15723494;-69
2022/06/11 02:04:55;;;;;;;;;;;;;;;29.24;28.13;100717.12;3951738;32;15724544;-70
2022/06/11 02:07:41;;;;;;;;;;;;;;;29.24;28.13;100717.12;4431539;32;19961;-69
2022/06/11 02:10:11;;;;;;;;;;;;;;;28.87;28.37;100719.13;4434150;32;19963;-69
2022/06/11 02:12:46;;;;;;;;;;;;;;;29.12;27.99;100716.66;4436435;32;20178;-69
2022/06/11 02:17:49;;;;;;;;;;;;;;;29.49;27.88;100718.25;3971432;31;15717307;-70
2022/06/11 02:20:19;;;;;;;;;;;;;;;29.49;27.88;100718.25;4443371;32;21794;-69
2022/06/11 02:22:49;;;;;;;;;;;;;;;29.44;27.59;100714.16;4443963;32;20041;-69
2022/06/11 02:25:17;;;;;;;;;;;;;;;29.49;27.48;100710.34;4443970;32;19953;-69
2022/06/11 02:27:45;;;;;;;;;;;;;;;29.08;28.06;100707.53;4448324;32;21068;-69
2022/06/11 02:30:12;;;;;;;;;;;;;;;28.97;28.34;100705.69;4446433;32;20024;-69
2022/06/11 02:32:38;;;;;;;;;;;;;;;28.35;29.19;100713.59;4444439;32;19965;-69
2022/06/11 02:35:06;;;;;;;;;;;;;;;28.63;28.80;100707.91;4447307;32;19949;-69
2022/06/11 02:37:34;;;;;;;;;;;;;;;28.31;29.23;100709.50;4445458;32;20009;-69
2022/06/11 02:40:02;;;;;;;;;;;;;;;28.78;28.58;100710.19;4444792;32;20286;-69
2022/06/11 02:42:29;;;;;;;;;;;;;;;28.70;28.73;100707.22;4446740;32;21094;-69
2022/06/11 02:44:54;;;;;;;;;;;;;;;28.87;28.51;100724.94;4444860;32;20208;-69
2022/06/11 02:47:21;;;;;;;;;;;;;;;28.92;28.27;100721.13;4444862;32;19997;-69
2022/06/11 02:49:46;;;;;;;;;;;;;;;29.44;27.62;100719.97;4450672;32;19964;-69
2022/06/11 02:52:14;;;;;;;;;;;;;;;29.11;28.14;100712.19;4445186;32;19996;-69
2022/06/11 02:54:41;;;;;;;;;;;;;;;28.65;28.74;100713.16;4447614;32;21445;-69
2022/06/11 02:57:08;;;;;;;;;;;;;;;29.20;27.92;100714.59;4445422;32;19961;-69
2022/06/11 02:59:35;;;;;;;;;;;;;;;28.69;28.68;100711.44;4446708;32;20072;-69
2022/06/11 03:02:00;;;;;;;;;;;;;;;28.75;28.74;100711.31;4443507;32;20415;-69
2022/06/11 03:04:27;;;;;;;;;;;;;;;28.46;29.11;100716.25;4446044;32;19957;-69
2022/06/11 03:06:52;;;;;;;;;;;;;;;28.96;28.31;100715.72;4445403;32;20349;-69
2022/06/11 03:09:21;;;;;;;;;;;;;;;28.14;29.58;100714.94;4446624;32;19953;-69
2022/06/11 03:11:46;;;;;;;;;;;;;;;28.57;28.96;100726.78;4446551;32;20004;-70
2022/06/11 03:14:13;;;;;;;;;;;;;;;28.59;28.97;100727.78;4443219;32;20007;-70
2022/06/11 03:16:39;;;;;;;;;;;;;;;28.60;28.87;100740.12;4441781;32;20045;-69
2022/06/11 03:19:05;;;;;;;;;;;;;;;28.59;29.01;100733.56;4444020;32;19969;-69
2022/06/11 03:21:31;;;;;;;;;;;;;;;28.44;29.12;100739.16;4448162;32;19965;-69
2022/06/11 03:23:57;;;;;;;;;;;;;;;28.76;28.83;100747.62;4443063;32;20532;-69
2022/06/11 03:26:24;;;;;;;;;;;;;;;28.57;28.92;100738.37;4447186;32;20402;-69
2022/06/11 03:28:51;;;;;;;;;;;;;;;28.67;28.82;100746.00;4436886;32;19953;-69
2022/06/11 03:31:17;;;;;;;;;;;;;;;28.70;28.83;100747.78;4433749;32;19997;-69
2022/06/11 03:33:43;;;;;;;;;;;;;;;28.46;29.20;100744.44;4433035;32;20589;-69
2022/06/11 03:36:10;;;;;;;;;;;;;;;28.62;28.98;100752.72;4435106;32;19952;-69
2022/06/11 03:38:36;;;;;;;;;;;;;;;29.03;28.17;100744.00;4433233;32;19957;-69
2022/06/11 03:41:02;;;;;;;;;;;;;;;28.40;29.30;100743.75;4432837;32;20274;-69
2022/06/11 03:43:28;;;;;;;;;;;;;;;28.67;28.97;100742.31;4435392;32;19988;-69
2022/06/11 03:45:53;;;;;;;;;;;;;;;28.86;28.68;100737.09;4433386;32;19957;-69
2022/06/11 03:48:19;;;;;;;;;;;;;;;29.12;28.18;100741.97;4432865;32;20009;-69
2022/06/11 03:50:45;;;;;;;;;;;;;;;29.07;28.35;100745.78;4434812;32;20005;-69
2022/06/11 03:53:11;;;;;;;;;;;;;;;28.70;28.64;100744.09;4432541;32;20004;-69
2022/06/11 03:55:38;;;;;;;;;;;;;;;28.73;28.93;100749.53;4435667;32;19984;-69
2022/06/11 03:58:04;;;;;;;;;;;;;;;29.21;28.13;100745.13;4434098;32;20394;-70
2022/06/11 04:03:17;;;;;;;;;;;;;;;28.73;28.64;100749.53;4434536;32;19961;-69
2022/06/11 04:05:44;;;;;;;;;;;;;;;29.17;28.30;100762.09;4431938;32;20303;-69
2022/06/11 04:08:10;;;;;;;;;;;;;;;29.02;28.50;100759.03;4432688;32;19964;-69
2022/06/11 04:10:37;;;;;;;;;;;;;;;29.23;28.27;100762.72;4431661;32;20001;-69
2022/06/11 04:13:05;;;;;;;;;;;;;;;29.01;28.54;100760.41;4433015;32;19968;-69
2022/06/11 04:15:31;;;;;;;;;;;;;;;29.19;28.11;100762.31;4428630;32;20290;-70
2022/06/11 04:17:56;;;;;;;;;;;;;;;28.93;28.71;100771.91;4434579;32;20358;-69
2022/06/11 04:20:22;;;;;;;;;;;;;;;29.35;28.14;100772.66;4432657;32;20346;-69
2022/06/11 04:22:48;;;;;;;;;;;;;;;29.01;28.41;100775.66;4433032;32;20367;-69
2022/06/11 04:25:15;;;;;;;;;;;;;;;29.24;28.30;100781.69;4431086;32;19960;-69
2022/06/11 04:27:40;;;;;;;;;;;;;;;28.44;29.58;100776.06;4432181;32;20224;-69
2022/06/11 04:30:07;;;;;;;;;;;;;;;29.14;28.53;100782.75;4432745;32;19964;-69
2022/06/11 04:32:32;;;;;;;;;;;;;;;29.02;28.65;100785.91;4431326;32;20029;-69
2022/06/11 04:34:59;;;;;;;;;;;;;;;28.35;29.66;100771.50;4434406;32;19971;-69
2022/06/11 04:37:27;;;;;;;;;;;;;;;28.57;29.04;100779.69;4431513;32;20316;-69
2022/06/11 04:39:54;;;;;;;;;;;;;;;28.90;28.86;100778.09;4430429;32;19968;-69
2022/06/11 04:42:21;;;;;;;;;;;;;;;29.59;27.81;100789.66;4432823;32;20048;-69
2022/06/11 04:44:46;;;;;;;;;;;;;;;29.14;28.53;100789.31;4431760;32;19990;-69
2022/06/11 04:47:13;;;;;;;;;;;;;;;29.41;27.96;100789.91;4431563;32;20063;-69
2022/06/11 04:49:39;;;;;;;;;;;;;;;28.93;28.63;100798.00;4436401;32;19957;-69
2022/06/11 04:52:05;;;;;;;;;;;;;;;29.59;27.91;100801.25;4433129;32;20303;-69
2022/06/11 04:54:31;;;;;;;;;;;;;;;29.84;27.54;100799.50;4427992;32;20032;-69
2022/06/11 04:56:57;;;;;;;;;;;;;;;29.41;28.02;100798.59;4434943;32;20008;-69
2022/06/11 04:59:23;;;;;;;;;;;;;;;28.86;28.80;100806.63;4432661;32;19995;-69
2022/06/11 05:01:48;;;;;;;;;;;;;;;28.70;29.18;100794.13;4432564;32;20039;-69
2022/06/11 05:04:14;;;;;;;;;;;;;;;28.76;28.99;100802.66;4434281;32;19985;-69
2022/06/11 05:06:42;;;;;;;;;;;;;;;28.62;29.18;100804.84;4433713;32;20348;-69
2022/06/11 05:09:09;;;;;;;;;;;;;;;28.39;29.48;100808.78;4433414;32;19986;-69
2022/06/11 05:11:36;;;;;;;;;;;;;;;28.74;28.82;100806.13;4429288;32;20033;-69
2022/06/11 05:14:02;;;;;;;;;;;;;;;28.58;29.25;100806.53;4431544;32;20000;-69
2022/06/11 05:16:27;;;;;;;;;;;;;;;28.41;29.75;100800.34;4432030;32;19989;-69
2022/06/11 05:18:53;;;;;;;;;;;;;;;28.60;29.48;100810.41;4430790;32;19953;-69
2022/06/11 05:21:19;;;;;;;;;;;;;;;28.62;29.34;100806.94;4434020;32;20000;-69
2022/06/11 05:23:45;;;;;;;;;;;;;;;29.67;28.01;100812.94;4430843;32;20015;-69
2022/06/11 05:26:13;;;;;;;;;;;;;;;29.65;27.88;100809.81;4431633;32;20043;-69
2022/06/11 05:28:39;;;;;;;;;;;;;;;29.68;27.89;100803.66;4431409;32;20023;-69
2022/06/11 05:31:05;;;;;;;;;;;;;;;29.50;27.92;100806.78;4434250;32;19995;-69
2022/06/11 05:33:30;;;;;;;;;;;;;;;29.14;28.57;100803.03;4426242;32;21004;-69
2022/06/11 05:35:56;;;;;;;;;;;;;;;29.95;27.46;100801.28;4430209;32;20019;-69
2022/06/11 05:38:24;;;;;;;;;;;;;;;29.88;27.40;100802.81;4429721;32;20729;-69
2022/06/11 05:40:50;;;;;;;;;;;;;;;29.79;27.62;100802.56;4432625;32;19991;-69
2022/06/11 05:43:16;;;;;;;;;;;;;;;29.76;27.70;100804.47;4432396;32;19996;-69
2022/06/11 05:45:48;;;;;;;;;;;;;;;29.70;27.77;100806.00;4431366;32;20005;-69
2022/06/11 05:48:14;;;;;;;;;;;;;;;29.99;27.41;100801.69;4430012;32;19953;-70
2022/06/11 05:50:41;;;;;;;;;;;;;;;30.13;27.05;100803.88;4432153;32;19953;-69
2022/06/11 05:53:08;;;;;;;;;;;;;;;29.89;27.46;100800.69;4433598;32;20424;-70
2022/06/11 05:55:35;;;;;;;;;;;;;;;30.27;26.79;100810.34;4431733;32;20388;-70
2022/06/11 05:58:03;;;;;;;;;;;;;;;30.08;27.19;100796.13;4433781;32;20016;-69
2022/06/11 06:00:29;;;;;;;;;;;;;;;30.41;26.73;100800.94;4430038;32;19980;-69
2022/06/11 06:02:56;;;;;;;;;;;;;;;30.79;26.26;100804.75;4431249;32;21109;-69
2022/06/11 06:05:23;;;;;;;;;;;;;;;31.09;25.74;100801.09;4432171;32;20011;-69
2022/06/11 06:07:50;;;;;;;;;;;;;;;30.98;25.94;100804.34;4433486;32;19969;-69
2022/06/11 06:10:15;;;;;;;;;;;;;;;30.13;26.79;100806.78;4434716;32;20627;-70
2022/06/11 06:12:41;;;;;;;;;;;;;;;30.56;26.28;100812.59;4431487;32;20401;-69
2022/06/11 06:15:11;;;;;;;;;;;;;;;30.48;26.62;100819.72;4433511;32;19987;-69
2022/06/11 06:17:39;;;;;;;;;;;;;;;30.25;26.57;100810.19;4431742;32;20089;-69
2022/06/11 06:20:07;;;;;;;;;;;;;;;30.47;26.36;100821.09;4433971;32;19964;-69
2022/06/11 06:22:32;;;;;;;;;;;;;;;30.59;26.14;100820.16;4433168;32;19996;-69
2022/06/11 06:24:57;;;;;;;;;;;;;;;30.98;25.73;100818.12;4432821;32;19976;-69
2022/06/11 06:27:23;;;;;;;;;;;;;;;30.49;26.32;100822.06;4434704;32;19989;-69
2022/06/11 06:29:49;;;;;;;;;;;;;;;30.94;25.47;100824.31;4432790;32;20000;-69
2022/06/11 06:32:14;;;;;;;;;;;;;;;29.79;27.37;100814.94;4431539;32;19956;-68
2022/06/11 06:34:40;;;;;;;;;;;;;;;30.69;26.08;100829.87;4429356;32;19969;-68
2022/06/11 06:37:05;;;;;;;;;;;;;;;29.86;27.32;100831.62;4432061;32;19957;-68
2022/06/11 06:39:32;;;;;;;;;;;;;;;30.30;26.73;100830.31;4434824;32;20430;-68
2022/06/11 06:41:58;;;;;;;;;;;;;;;30.13;26.92;100835.81;4432857;32;19964;-68
2022/06/11 06:44:24;;;;;;;;;;;;;;;30.70;26.21;100848.84;4434880;32;20341;-68
2022/06/11 06:46:49;;;;;;;;;;;;;;;31.18;25.58;100854.97;4431197;32;20374;-70
2022/06/11 06:49:15;;;;;;;;;;;;;;;31.27;25.47;100852.25;4433469;32;19961;-69
2022/06/11 06:51:41;;;;;;;;;;;;;;;30.35;26.53;100849.72;4430820;32;19997;-69
2022/06/11 06:54:07;;;;;;;;;;;;;;;30.33;26.50;100852.41;4433063;32;19992;-69
2022/06/11 06:56:33;;;;;;;;;;;;;;;30.87;25.96;100850.47;4432638;32;19961;-69
2022/06/11 06:59:00;;;;;;;;;;;;;;;31.58;25.07;100859.66;4429728;32;20323;-69
2022/06/11 07:01:26;;;;;;;;;;;;;;;32.07;24.30;100862.91;4431409;32;19950;-69
2022/06/11 07:03:52;;;;;;;;;;;;;;;31.80;24.55;100866.78;4434282;32;19991;-69
2022/06/11 07:06:18;;;;;;;;;;;;;;;31.83;24.63;100848.97;4433917;32;20362;-69
2022/06/11 07:08:44;;;;;;;;;;;;;;;31.21;25.52;100868.34;4435085;32;20005;-69
2022/06/11 07:11:09;;;;;;;;;;;;;;;32.15;24.40;100866.53;4436892;32;20467;-69
2022/06/11 07:13:35;;;;;;;;;;;;;;;31.70;24.68;100866.63;4436340;32;20017;-69
2022/06/11 07:16:02;;;;;;;;;;;;;;;32.16;24.25;100867.31;4435159;32;19977;-69
2022/06/11 07:21:06;;;;;;;;;;;;;;;33.11;23.27;100868.06;3953515;32;15723503;-69
2022/06/11 07:23:35;;;;;;;;;;;;;;;33.11;23.27;100868.06;4429898;32;20459;-70
2022/06/11 07:26:02;;;;;;;;;;;;;;;31.84;24.42;100861.41;4428025;32;19968;-70
2022/06/11 07:28:31;;;;;;;;;;;;;;;31.68;24.50;100868.56;4429271;32;20013;-70
2022/06/11 07:30:59;;;;;;;;;;;;;;;32.00;24.03;100866.56;4427357;32;19961;-69
2022/06/11 07:33:25;;;;;;;;;;;;;;;32.34;23.81;100863.97;4430153;32;19957;-69
2022/06/11 07:35:52;;;;;;;;;;;;;;;32.56;23.60;100859.41;4410519;32;19999;-69
2022/06/11 07:38:18;;;;;;;;;;;;;;;32.43;23.83;100863.34;4427777;32;20479;-69
2022/06/11 07:40:44;;;;;;;;;;;;;;;31.89;24.44;100867.00;4426938;32;20373;-69
2022/06/11 07:43:10;;;;;;;;;;;;;;;32.59;23.75;100869.91;4428725;32;19957;-69
2022/06/11 07:45:37;;;;;;;;;;;;;;;32.02;24.10;100875.50;4430079;32;20049;-70
2022/06/11 07:48:03;;;;;;;;;;;;;;;32.26;23.79;100874.88;4429609;32;20330;-69
2022/06/11 07:50:30;;;;;;;;;;;;;;;32.03;24.11;100877.06;4427595;32;19976;-69
2022/06/11 07:52:55;;;;;;;;;;;;;;;30.86;25.54;100875.84;4427745;32;19952;-69
2022/06/11 07:55:22;;;;;;;;;;;;;;;31.40;25.02;100877.50;4427854;32;19954;-69
2022/06/11 07:57:48;;;;;;;;;;;;;;;31.04;25.24;100873.97;4426729;32;20008;-69
2022/06/11 08:00:16;;;;;;;;;;;;;;;31.44;24.64;100877.91;4431504;32;20036;-69
2022/06/11 08:02:42;;;;;;;;;;;;;;;31.79;24.18;100888.53;4426875;32;19997;-69
2022/06/11 08:05:08;;;;;;;;;;;;;;;31.01;25.13;100881.69;4426008;32;20004;-69
2022/06/11 08:07:34;;;;;;;;;;;;;;;30.76;24.71;100871.94;4426844;32;19980;-69
2022/06/11 08:09:59;;;;;;;;;;;;;;;31.45;23.71;100891.84;4411646;32;20329;-70
2022/06/11 08:12:25;;;;;;;;;;;;;;;31.69;23.51;100887.59;4426935;32;20027;-69
2022/06/11 08:14:56;;;;;;;;;;;;;;;30.83;24.45;100882.81;4425345;32;19984;-69
2022/06/11 08:17:25;;;;;;;;;;;;;;;30.87;24.25;100891.16;4428132;32;20229;-69
2022/06/11 08:19:50;;;;;;;;;;;;;;;30.96;24.21;100884.78;4413830;32;19985;-69
2022/06/11 08:22:16;;;;;;;;;;;;;;;31.33;23.69;100884.09;4432147;32;20307;-69
2022/06/11 08:24:41;;;;;;;;;;;;;;;31.56;23.39;100890.66;4427805;32;19979;-69
2022/06/11 08:27:07;;;;;;;;;;;;;;;30.83;24.03;100891.53;4425715;32;20105;-69
2022/06/11 08:29:33;;;;;;;;;;;;;;;30.66;24.28;100883.31;4428545;32;19985;-69
2022/06/11 08:31:58;;;;;;;;;;;;;;;31.03;24.00;100890.63;4419118;32;19949;-69
2022/06/11 08:34:24;;;;;;;;;;;;;;;31.14;24.11;100884.44;4415165;32;20024;-69
2022/06/11 08:36:49;;;;;;;;;;;;;;;32.20;22.81;100908.47;4415491;32;19985;-69
2022/06/11 08:39:15;;;;;;;;;;;;;;;32.16;22.85;100900.16;4417649;32;19993;-69
2022/06/11 08:41:40;;;;;;;;;;;;;;;32.01;22.66;100903.09;4419021;32;20031;-69
2022/06/11 08:44:10;;;;;;;;;;;;;;;32.25;22.32;100896.62;4418314;32;21053;-69
2022/06/11 08:46:37;;;;;;;;;;;;;;;31.54;23.39;100884.69;4416919;32;20085;-69
2022/06/11 08:54:24;;;;;;;;;;;;;;;32.14;22.76;100916.62;3955267;32;15727573;-69
2022/06/11 08:56:56;;;;;;;;;;;;;;;32.14;22.76;100916.62;4433815;32;20476;-69
2022/06/11 09:05:09;;;;;;;;;;;;;;;33.08;21.76;100902.09;3951929;32;15725492;-70
2022/06/11 09:13:11;;;;;;;;;;;;;;;33.30;21.09;100903.31;3951293;32;15722629;-70
2022/06/11 09:23:53;;;;;;;;;;;;;;;35.19;18.85;100924.09;3949232;32;15724393;-70
2022/06/11 09:26:38;;;;;;;;;;;;;;;35.19;18.85;100924.09;4428448;32;19949;-70
2022/06/11 09:29:23;;;;;;;;;;;;;;;35.10;18.90;100945.28;4429557;32;20023;-70
2022/06/11 09:32:01;;;;;;;;;;;;;;;33.86;19.82;100931.66;4429302;32;19953;-70
2022/06/11 09:34:32;;;;;;;;;;;;;;;34.02;19.69;100941.87;4425151;32;20244;-70
2022/06/11 09:50:19;;;;;;;;;;;;;;;34.24;19.71;100935.00;3952753;32;15727592;-70
2022/06/11 09:52:51;;;;;;;;;;;;;;;34.24;19.71;100935.00;4419657;32;20007;-70
2022/06/11 09:55:21;;;;;;;;;;;;;;;34.48;19.16;100927.56;4427913;32;19964;-70
2022/06/11 09:57:54;;;;;;;;;;;;;;;33.87;19.69;100942.75;4434549;32;19968;-70
2022/06/11 10:00:23;;;;;;;;;;;;;;;33.90;19.61;100953.25;4432614;32;20390;-70
2022/06/11 10:05:44;;;;;;;;;;;;;;;33.27;20.36;100962.84;3952748;32;15724492;-70
2022/06/11 10:08:15;;;;;;;;;;;;;;;33.27;20.36;100962.84;4433877;32;19958;-69
2022/06/11 10:10:45;;;;;;;;;;;;;;;33.05;20.71;100943.34;4431363;32;20008;-69
2022/06/11 10:13:19;;;;;;;;;;;;;;;32.65;20.69;100955.72;4434019;32;19975;-69
2022/06/11 10:15:47;;;;;;;;;;;;;;;33.33;19.96;100952.50;4433961;32;19954;-69
2022/06/11 10:18:23;;;;;;;;;;;;;;;33.92;19.70;100962.19;4432771;32;20357;-70
2022/06/11 10:20:51;;;;;;;;;;;;;;;32.27;21.45;100971.75;4433359;32;20005;-69
2022/06/11 10:23:26;;;;;;;;;;;;;;;32.51;21.33;100960.25;4432684;32;20381;-69
2022/06/11 10:26:02;;;;;;;;;;;;;;;31.92;21.96;100953.19;4435689;32;20294;-69
2022/06/11 10:31:07;;;;;;;;;;;;;;;33.38;20.91;100974.84;3959057;32;15723432;-70
2022/06/11 10:33:37;;;;;;;;;;;;;;;33.38;20.91;100974.84;4442003;32;19996;-70
2022/06/11 10:36:07;;;;;;;;;;;;;;;33.47;20.66;100968.34;4441492;32;20408;-70
2022/06/11 10:41:16;;;;;;;;;;;;;;;33.39;20.68;100975.63;3950140;32;15732955;-70
2022/06/11 10:44:02;;;;;;;;;;;;;;;33.39;20.68;100975.63;4429119;32;19961;-70
2022/06/11 10:46:29;;;;;;;;;;;;;;;34.06;19.91;100980.97;4425846;32;20291;-70
2022/06/11 10:48:54;;;;;;;;;;;;;;;33.77;20.12;100987.78;4424335;32;19988;-70
2022/06/11 10:51:23;;;;;;;;;;;;;;;34.46;19.52;100974.94;4427535;32;20626;-70
2022/06/11 10:54:09;;;;;;;;;;;;;;;34.57;19.49;100982.41;4428002;32;19985;-70
2022/06/11 10:56:40;;;;;;;;;;;;;;;35.01;19.06;100974.47;4427032;32;20016;-70
2022/06/11 10:59:13;;;;;;;;;;;;;;;34.13;19.61;100950.91;4425881;32;19991;-70
2022/06/11 11:01:44;;;;;;;;;;;;;;;34.62;19.09;100949.97;4423749;32;19953;-70
2022/06/11 11:07:05;;;;;;;;;;;;;;;34.40;19.37;100956.88;3951869;32;15725409;-70
2022/06/11 11:09:30;;;;;;;;;;;;;;;34.40;19.37;100956.88;4428370;32;19971;-70
2022/06/11 11:11:58;;;;;;;;;;;;;;;33.83;20.07;100953.28;4430119;32;20477;-70
2022/06/11 11:17:25;;;;;;;;;;;;;;;34.71;19.36;100968.97;3949528;32;15722572;-71
2022/06/11 11:22:39;;;;;;;;;;;;;;;34.49;19.46;100964.16;4428214;32;20001;-69
2022/06/11 11:25:10;;;;;;;;;;;;;;;33.64;20.34;100953.84;4428924;32;19960;-69
2022/06/11 11:27:43;;;;;;;;;;;;;;;34.08;19.77;100957.75;4428417;32;19987;-69
2022/06/11 11:32:52;;;;;;;;;;;;;;;35.59;18.72;100959.56;3951788;32;15723394;-70
2022/06/11 11:38:00;;;;;;;;;;;;;;;35.16;18.84;100962.56;3959410;32;15724109;-70
2022/06/11 11:43:03;;;;;;;;;;;;;;;34.00;19.80;100976.72;3949996;32;15722433;-70
2022/06/11 11:45:40;;;;;;;;;;;;;;;34.00;19.80;100976.72;4432690;32;21009;-70
2022/06/11 11:48:07;;;;;;;;;;;;;;;34.67;19.05;100951.87;4433044;32;20011;-70
2022/06/11 11:50:35;;;;;;;;;;;;;;;34.37;19.58;100946.38;4432020;32;19953;-70
2022/06/11 11:53:03;;;;;;;;;;;;;;;34.66;19.24;100967.84;4431546;32;19945;-70
2022/06/11 11:55:30;;;;;;;;;;;;;;;34.73;19.08;100945.75;4433427;32;20389;-70
2022/06/11 11:57:59;;;;;;;;;;;;;;;34.79;19.00;100967.53;4430255;32;20398;-70
2022/06/11 12:00:30;;;;;;;;;;;;;;;34.92;19.03;100937.16;4430716;32;20448;-70
2022/06/11 12:02:59;;;;;;;;;;;;;;;36.19;17.88;100938.03;4429749;32;19945;-70
2022/06/11 12:05:28;;;;;;;;;;;;;;;35.48;18.23;100939.66;4431709;32;19989;-70
2022/06/11 12:07:55;;;;;;;;;;;;;;;35.00;18.46;100947.34;4431500;32;19992;-70
2022/06/11 12:13:17;;;;;;;;;;;;;;;35.25;18.90;100941.34;3949257;32;15723557;-70
2022/06/11 12:15:49;;;;;;;;;;;;;;;35.25;18.90;100941.34;4427088;32;19961;-70
2022/06/11 12:18:17;;;;;;;;;;;;;;;35.78;18.23;100938.37;4427598;32;20237;-70
2022/06/11 12:20:44;;;;;;;;;;;;;;;36.51;17.62;100936.84;4429627;32;20052;-70
2022/06/11 12:28:41;;;;;;;;;;;;;;;36.14;17.86;100944.19;3950702;32;15730386;-70
2022/06/11 12:31:08;;;;;;;;;;;;;;;36.14;17.86;100944.19;4427994;32;20170;-70
2022/06/11 12:33:34;;;;;;;;;;;;;;;36.80;17.25;100946.44;4424313;32;19977;-70
2022/06/11 12:36:05;;;;;;;;;;;;;;;36.29;17.36;100954.88;4428553;32;19981;-70
2022/06/11 12:38:38;;;;;;;;;;;;;;;35.19;18.33;100940.88;4425878;32;20001;-70
2022/06/11 12:43:49;;;;;;;;;;;;;;;35.89;17.58;100932.72;3950401;32;15729569;-71
2022/06/11 12:46:21;;;;;;;;;;;;;;;35.89;17.58;100932.72;4426683;32;20193;-69
2022/06/11 12:48:49;;;;;;;;;;;;;;;34.15;18.66;100956.13;4411080;32;19981;-69
2022/06/11 12:51:23;;;;;;;;;;;;;;;36.17;17.35;100925.37;4424994;32;19949;-69
2022/06/11 12:53:58;;;;;;;;;;;;;;;36.95;16.97;100931.44;4426720;32;20343;-69
2022/06/11 12:56:43;;;;;;;;;;;;;;;37.07;16.55;100923.53;4427708;32;20399;-70
2022/06/11 13:07:32;;;;;;;;;;;;;;;38.39;15.37;100914.69;3949169;32;15726818;-70
2022/06/11 13:10:18;;;;;;;;;;;;;;;38.39;15.37;100914.69;4435091;32;19973;-70
2022/06/11 13:13:04;;;;;;;;;;;;;;;37.62;15.59;100925.34;4434180;32;19957;-70
2022/06/11 13:15:41;;;;;;;;;;;;;;;37.44;16.12;100924.81;4434575;32;19957;-70
2022/06/11 13:18:26;;;;;;;;;;;;;;;37.93;15.66;100940.81;4431533;32;20032;-70
2022/06/11 13:23:46;;;;;;;;;;;;;;;38.11;14.22;100930.38;3950278;32;15725599;-71
2022/06/11 13:37:02;;;;;;;;;;;;;;;41.71;11.92;100928.13;3950993;32;15722346;-70
2022/06/11 13:39:38;;;;;;;;;;;;;;;41.71;11.92;100928.13;4430708;32;20469;-71
2022/06/11 13:42:17;;;;;;;;;;;;;;;40.65;12.57;100910.91;4429983;32;20014;-69
2022/06/11 13:44:51;;;;;;;;;;;;;;;41.91;12.06;100929.25;4431354;32;20325;-70
2022/06/11 13:47:26;;;;;;;;;;;;;;;42.46;11.41;100929.97;4426147;32;20400;-70
2022/06/11 13:55:21;;;;;;;;;;;;;;;40.60;12.64;100929.78;4427599;32;20449;-69
2022/06/11 13:57:58;;;;;;;;;;;;;;;40.33;12.53;100934.78;4431793;32;19953;-70
2022/06/11 14:00:46;;;;;;;;;;;;;;;40.97;12.05;100938.63;4426837;32;19954;-71
2022/06/11 14:03:30;;;;;;;;;;;;;;;41.09;12.26;100939.34;4425783;32;20370;-71
2022/06/11 14:05:58;;;;;;;;;;;;;;;39.77;13.05;100946.72;4427677;32;20008;-71
2022/06/11 14:08:31;;;;;;;;;;;;;;;38.33;13.93;100923.09;4426203;32;20038;-71
2022/06/11 14:11:00;;;;;;;;;;;;;;;38.80;13.87;100933.69;4427125;32;20439;-71
2022/06/11 14:13:45;;;;;;;;;;;;;;;38.85;14.39;100926.69;4424969;32;20421;-71
2022/06/11 14:16:31;;;;;;;;;;;;;;;38.16;15.52;100935.13;4429077;32;20355;-71
2022/06/11 14:18:57;;;;;;;;;;;;;;;38.78;14.96;100933.56;4429300;32;19968;-71
2022/06/11 14:24:34;;;;;;;;;;;;;;;41.99;12.89;100940.75;3965493;31;15715665;-71
2022/06/11 14:26:59;;;;;;;;;;;;;;;41.99;12.89;100940.75;4449355;32;20382;-71
2022/06/11 14:29:26;;;;;;;;;;;;;;;42.34;12.72;100941.94;4451581;32;20007;-71
2022/06/11 14:31:54;;;;;;;;;;;;;;;43.70;11.45;100938.37;4449755;32;20000;-71
2022/06/11 14:34:24;;;;;;;;;;;;;;;42.79;12.18;100939.09;4450840;32;20369;-71
2022/06/11 14:39:42;;;;;;;;;;;;;;;39.16;14.99;100936.13;3952395;32;15723612;-71
2022/06/11 14:42:23;;;;;;;;;;;;;;;39.16;14.99;100936.13;4427577;32;19957;-71
2022/06/11 14:45:08;;;;;;;;;;;;;;;38.85;15.28;100972.97;4426668;32;19996;-71
2022/06/11 14:47:53;;;;;;;;;;;;;;;38.82;15.22;100936.00;4424578;32;19962;-71
2022/06/11 14:50:38;;;;;;;;;;;;;;;38.90;15.24;100949.06;4427005;32;20020;-71
2022/06/11 14:53:08;;;;;;;;;;;;;;;38.85;15.22;100955.31;4427127;32;19953;-71
2022/06/11 14:55:36;;;;;;;;;;;;;;;38.77;15.16;100946.72;4426944;32;20257;-71
2022/06/11 14:58:12;;;;;;;;;;;;;;;40.57;13.78;100954.69;4422711;32;19954;-71
2022/06/11 15:16:43;;;;;;;;;;;;;;;42.13;11.96;100968.87;3950384;32;15722567;-70
2022/06/11 15:19:11;;;;;;;;;;;;;;;42.13;11.96;100968.87;4430152;32;19977;-70
2022/06/11 15:21:40;;;;;;;;;;;;;;;42.08;11.76;100990.78;4430827;32;19989;-70
2022/06/11 15:24:09;;;;;;;;;;;;;;;42.90;11.12;100968.56;4427637;32;19949;-70
2022/06/11 15:26:40;;;;;;;;;;;;;;;43.08;10.74;100971.69;4425074;32;19964;-70